Time;durP1;ratioP1;P1;durP2;ratioP2;P2;SDS_P1;SDS_P2;PMS_P1;PMS_P2;Temp;Humidity;BMP_temperature;BMP_pressure;BME280_temperature;BME280_humidity;BME280_pressure;Samples;Min_cycle;Max_cycle;Signal;HPM_P1;HPM_P2
2022/02/15 00:01:17;;;;;;;;;23.00;22.50;;;;;-2.17;100.00;101751.16;3736792;37;20717;-64
2022/02/15 00:03:45;;;;;;;;;23.25;23.25;;;;;-2.22;100.00;101758.47;3737887;38;20725;-64
2022/02/15 00:06:23;;;;;;;;;21.25;20.25;;;;;-2.22;100.00;101753.16;3737987;37;20720;-63
2022/02/15 00:08:57;;;;;;;;;23.75;21.75;;;;;-2.26;100.00;101747.16;3734754;38;20984;-64
2022/02/15 00:11:24;;;;;;;;;22.50;20.25;;;;;-2.17;100.00;101757.31;3725638;38;21008;-63
2022/02/15 00:13:56;;;;;;;;;22.25;21.75;;;;;-2.16;100.00;101748.44;3725376;37;20757;-64
2022/02/15 00:16:25;;;;;;;;;22.25;21.25;;;;;-2.19;100.00;101753.88;3725285;38;20767;-63
2022/02/15 00:18:52;;;;;;;;;23.50;22.00;;;;;-2.22;100.00;101745.22;3725444;37;20770;-63
2022/02/15 00:21:19;;;;;;;;;20.50;18.00;;;;;-2.16;100.00;101752.88;3725241;37;20775;-63
2022/02/15 00:23:50;;;;;;;;;22.00;21.25;;;;;-2.11;100.00;101743.78;3724981;37;20696;-61
2022/02/15 00:26:18;;;;;;;;;20.75;19.50;;;;;-2.07;100.00;101741.78;3724930;37;20778;-64
2022/02/15 00:28:50;;;;;;;;;26.50;22.50;;;;;-2.06;100.00;101736.41;3725002;37;20953;-63
2022/02/15 00:31:19;;;;;;;;;27.00;23.75;;;;;-2.16;100.00;101721.91;3724556;38;20740;-64
2022/02/15 00:33:49;;;;;;;;;19.50;18.50;;;;;-2.08;100.00;101735.63;3724582;37;20952;-63
2022/02/15 00:36:17;;;;;;;;;23.00;19.00;;;;;-2.12;100.00;101727.94;3724872;38;20773;-62
2022/02/15 00:38:49;;;;;;;;;21.50;19.50;;;;;-2.16;100.00;101729.88;3724654;37;20730;-64
2022/02/15 00:41:23;;;;;;;;;16.25;16.25;;;;;-2.15;100.00;101728.94;3725628;37;20845;-63
2022/02/15 00:43:54;;;;;;;;;19.25;18.50;;;;;-2.12;100.00;101727.94;3726735;37;20784;-62
2022/02/15 00:46:23;;;;;;;;;19.25;18.50;;;;;-2.14;100.00;101720.03;3726993;38;20738;-63
2022/02/15 00:48:53;;;;;;;;;23.00;21.25;;;;;-2.18;100.00;101720.25;3726671;38;20759;-62
2022/02/15 00:51:22;;;;;;;;;21.75;20.50;;;;;-2.22;100.00;101719.56;3726476;38;20760;-63
2022/02/15 00:53:50;;;;;;;;;24.50;22.75;;;;;-2.23;100.00;101715.19;3725658;37;20792;-64
2022/02/15 00:56:20;;;;;;;;;21.00;20.00;;;;;-2.23;100.00;101706.38;3725063;38;20729;-64
2022/02/15 00:58:48;;;;;;;;;23.75;21.25;;;;;-2.20;100.00;101704.44;3724813;37;20642;-65
2022/02/15 01:01:15;;;;;;;;;18.25;17.00;;;;;-2.24;100.00;101694.91;3724449;37;20720;-66
2022/02/15 01:03:42;;;;;;;;;22.00;17.25;;;;;-2.28;100.00;101700.44;3724278;38;20727;-63
2022/02/15 01:06:11;;;;;;;;;21.50;18.75;;;;;-2.33;100.00;101692.69;3725354;38;20657;-63
2022/02/15 01:08:42;;;;;;;;;10.75;7.25;;;;;-2.28;100.00;101698.63;3725926;37;20638;-63
2022/02/15 01:11:11;;;;;;;;;17.75;16.25;;;;;-2.28;100.00;101689.81;3725180;38;20818;-64
2022/02/15 01:13:39;;;;;;;;;21.00;19.50;;;;;-2.35;100.00;101687.47;3724850;38;20704;-61
2022/02/15 01:16:09;;;;;;;;;27.50;23.75;;;;;-2.36;100.00;101683.09;3725135;37;20715;-63
2022/02/15 01:18:36;;;;;;;;;18.50;16.00;;;;;-2.35;100.00;101687.47;3725255;37;20761;-62
2022/02/15 01:21:04;;;;;;;;;21.50;20.00;;;;;-2.33;100.00;101685.59;3725136;37;20614;-64
2022/02/15 01:23:32;;;;;;;;;22.25;21.25;;;;;-2.32;100.00;101689.09;3725257;37;20693;-63
2022/02/15 01:26:00;;;;;;;;;19.00;17.50;;;;;-2.35;100.00;101682.16;3725127;37;20836;-63
2022/02/15 01:28:27;;;;;;;;;22.25;19.75;;;;;-2.37;100.00;101683.16;3724467;37;20790;-61
2022/02/15 01:30:56;;;;;;;;;24.50;21.50;;;;;-2.37;100.00;101676.06;3725205;38;20678;-62
2022/02/15 01:33:25;;;;;;;;;24.50;19.00;;;;;-2.40;100.00;101670.91;3724528;38;20592;-63
2022/02/15 01:35:53;;;;;;;;;22.00;20.25;;;;;-2.40;100.00;101673.56;3724991;37;20724;-62
2022/02/15 01:38:21;;;;;;;;;23.25;21.75;;;;;-2.39;100.00;101669.12;3724820;38;20685;-60
2022/02/15 01:40:52;;;;;;;;;19.50;17.50;;;;;-2.42;100.00;101669.25;3724712;37;20713;-62
2022/02/15 01:43:24;;;;;;;;;22.50;20.25;;;;;-2.46;100.00;101665.03;3725019;38;20608;-63
2022/02/15 01:45:51;;;;;;;;;19.00;17.00;;;;;-2.48;100.00;101661.59;3724826;37;20588;-63
2022/02/15 01:48:18;;;;;;;;;17.50;16.00;;;;;-2.51;100.00;101662.59;3724885;37;20554;-62
2022/02/15 01:50:47;;;;;;;;;20.75;19.75;;;;;-2.58;100.00;101650.56;3725097;37;20817;-63
2022/02/15 01:53:15;;;;;;;;;22.75;19.50;;;;;-2.48;100.00;101666.91;3724557;37;20660;-62
2022/02/15 01:55:43;;;;;;;;;21.00;19.75;;;;;-2.48;100.00;101670.41;3724836;38;20670;-63
2022/02/15 01:58:11;;;;;;;;;23.00;18.25;;;;;-2.45;100.00;101664.97;3724837;38;20705;-61
2022/02/15 02:00:42;;;;;;;;;16.75;14.75;;;;;-2.44;100.00;101666.69;3725019;38;20659;-64
2022/02/15 02:03:23;;;;;;;;;18.00;17.25;;;;;-2.43;100.00;101667.53;3724931;37;20684;-64
2022/02/15 02:05:52;;;;;;;;;19.50;19.50;;;;;-2.46;100.00;101668.56;3725019;38;20571;-63
2022/02/15 02:08:32;;;;;;;;;15.75;15.00;;;;;-2.42;100.00;101671.91;3724925;37;20562;-63
2022/02/15 02:11:03;;;;;;;;;18.75;18.25;;;;;-2.42;100.00;101661.31;3724528;38;20619;-63
2022/02/15 02:14:11;;;;;;;;;22.50;20.50;;;;;-2.58;100.00;101647.94;3724591;37;20738;-62
2022/02/15 02:16:47;;;;;;;;;18.50;17.75;;;;;-2.48;100.00;101670.41;3724882;38;20620;-63
2022/02/15 02:19:17;;;;;;;;;19.00;18.75;;;;;-2.52;100.00;101675.94;3724548;38;20677;-64
2022/02/15 02:21:46;;;;;;;;;17.25;15.25;;;;;-2.54;100.00;101670.72;3724557;37;20629;-63
2022/02/15 02:24:17;;;;;;;;;18.25;18.00;;;;;-2.51;100.00;101667.91;3724555;37;20607;-62
2022/02/15 02:26:50;;;;;;;;;20.00;18.75;;;;;-2.47;100.00;101673.94;3724886;37;20622;-63
2022/02/15 02:29:18;;;;;;;;;15.25;15.25;;;;;-2.44;100.00;101677.28;3724790;38;20607;-63
2022/02/15 02:31:49;;;;;;;;;21.25;19.25;;;;;-2.45;100.00;101674.72;3724359;37;20785;-64
2022/02/15 02:34:24;;;;;;;;;15.25;14.00;;;;;-2.44;100.00;101674.63;3724448;38;20519;-63
2022/02/15 02:36:52;;;;;;;;;15.00;15.00;;;;;-2.49;100.00;101671.34;3724445;37;20711;-62
2022/02/15 02:39:25;;;;;;;;;19.75;19.25;;;;;-2.59;100.00;101662.12;3724600;38;20563;-63
2022/02/15 02:41:58;;;;;;;;;19.50;15.75;;;;;-2.64;100.00;101665.94;3724654;38;20822;-63
2022/02/15 02:44:27;;;;;;;;;19.25;17.00;;;;;-2.63;100.00;101665.00;3724869;37;20571;-63
2022/02/15 02:46:57;;;;;;;;;17.75;15.50;;;;;-2.70;100.00;101670.59;3724801;38;20605;-64
2022/02/15 02:49:29;;;;;;;;;15.00;15.00;;;;;-2.94;100.00;101639.09;3724449;37;20648;-62
2022/02/15 02:52:01;;;;;;;;;20.50;17.25;;;;;-2.81;100.00;101670.22;3724549;38;20781;-63
2022/02/15 02:54:31;;;;;;;;;20.75;18.00;;;;;-2.79;100.00;101664.88;3724846;37;20565;-64
2022/02/15 02:57:07;;;;;;;;;16.75;14.75;;;;;-2.85;100.00;101671.31;3724531;37;20528;-64
2022/02/15 02:59:35;;;;;;;;;20.25;18.75;;;;;-2.86;100.00;101669.59;3724883;37;20467;-64
2022/02/15 03:02:09;;;;;;;;;21.00;19.00;;;;;-2.84;100.00;101675.66;3724819;37;20475;-63
2022/02/15 03:04:39;;;;;;;;;21.75;21.00;;;;;-2.80;100.00;101665.78;3725020;38;20805;-63
2022/02/15 03:07:09;;;;;;;;;19.75;18.00;;;;;-2.83;100.00;101666.78;3724564;38;20572;-62
2022/02/15 03:09:38;;;;;;;;;22.25;20.00;;;;;-2.84;100.00;101661.56;3724942;37;20546;-63
2022/02/15 03:12:07;;;;;;;;;17.75;14.25;;;;;-2.84;100.00;101659.78;3724795;37;20714;-63
2022/02/15 03:14:40;;;;;;;;;14.25;12.50;;;;;-2.84;100.00;101669.50;3724984;37;20553;-63
2022/02/15 03:17:09;;;;;;;;;19.50;16.25;;;;;-2.84;100.00;101677.47;3724704;37;20442;-64
2022/02/15 03:19:41;;;;;;;;;16.25;14.75;;;;;-2.84;100.00;101672.16;3724990;37;20467;-62
2022/02/15 03:22:10;;;;;;;;;14.50;14.25;;;;;-2.88;100.00;101670.59;3724763;37;20498;-63
2022/02/15 03:24:38;;;;;;;;;19.00;17.75;;;;;-2.95;100.00;101637.34;3724899;37;20542;-65
2022/02/15 03:27:06;;;;;;;;;20.75;18.50;;;;;-2.88;100.00;101667.94;3724855;38;20496;-62
2022/02/15 03:29:34;;;;;;;;;19.25;18.25;;;;;-2.93;100.00;101662.00;3724131;37;20639;-63
2022/02/15 03:32:04;;;;;;;;;19.75;18.75;;;;;-2.86;100.00;101671.38;3724625;38;20620;-62
2022/02/15 03:34:32;;;;;;;;;21.25;16.50;;;;;-2.79;100.00;101656.91;3724792;37;20523;-63
2022/02/15 03:37:00;;;;;;;;;29.25;23.75;;;;;-2.80;100.00;101661.34;3724421;38;20514;-62
2022/02/15 03:39:28;;;;;;;;;20.75;19.50;;;;;-2.76;100.00;101664.72;3724838;37;20641;-62
2022/02/15 03:44:53;;;;;;;;;16.00;14.00;;;;;-2.76;100.00;101667.37;3724540;38;20468;-63
2022/02/15 03:47:41;;;;;;;;;20.00;19.25;;;;;-2.74;100.00;101662.84;3724493;37;20520;-63
2022/02/15 03:50:10;;;;;;;;;17.50;17.50;;;;;-2.75;100.00;101669.09;3724772;38;20502;-61
2022/02/15 03:52:37;;;;;;;;;15.50;14.25;;;;;-2.84;100.00;101643.03;3724862;38;20388;-63
2022/02/15 03:55:08;;;;;;;;;16.50;16.25;;;;;-2.75;100.00;101658.50;3725407;37;20388;-63
2022/02/15 03:57:37;;;;;;;;;21.50;19.00;;;;;-2.69;100.00;101663.50;3725374;37;20392;-63
2022/02/15 04:00:09;;;;;;;;;20.75;20.75;;;;;-2.73;100.00;101662.78;3724879;37;20455;-63
2022/02/15 04:02:45;;;;;;;;;21.00;17.50;;;;;-2.68;100.00;101673.19;3724915;38;20421;-63
2022/02/15 04:05:13;;;;;;;;;20.00;16.50;;;;;-2.61;100.00;101677.25;3724812;38;20491;-63
2022/02/15 04:07:40;;;;;;;;;19.50;16.75;;;;;-2.64;100.00;101674.75;3725169;38;20481;-63
2022/02/15 04:10:10;;;;;;;;;20.50;16.75;;;;;-2.63;100.00;101665.88;3724541;38;20370;-62
2022/02/15 04:12:41;;;;;;;;;21.00;19.50;;;;;-2.56;100.00;101669.91;3724918;37;20445;-62
2022/02/15 04:15:09;;;;;;;;;18.75;18.25;;;;;-2.68;100.00;101652.84;3724834;38;20365;-63
2022/02/15 04:17:43;;;;;;;;;24.75;23.00;;;;;-2.59;100.00;101664.75;3724942;37;20436;-62
2022/02/15 04:20:13;;;;;;;;;21.75;20.75;;;;;-2.61;100.00;101677.25;3724515;38;20492;-63
2022/02/15 04:22:44;;;;;;;;;23.00;20.25;;;;;-2.67;100.00;101675.75;3724779;37;20449;-63
2022/02/15 04:25:13;;;;;;;;;20.50;18.75;;;;;-2.69;100.00;101674.09;3724477;37;20566;-63
2022/02/15 04:27:41;;;;;;;;;17.25;17.00;;;;;-2.65;100.00;101672.16;3724848;37;20453;-63
2022/02/15 04:30:09;;;;;;;;;27.25;24.00;;;;;-2.63;100.00;101673.81;3724806;37;20450;-63
2022/02/15 04:32:44;;;;;;;;;27.25;23.50;;;;;-2.64;100.00;101671.25;3724943;38;20754;-62
2022/02/15 04:35:12;;;;;;;;;21.00;19.00;;;;;-2.67;100.00;101675.75;3724878;37;20455;-63
2022/02/15 04:37:41;;;;;;;;;24.00;23.50;;;;;-2.70;100.00;101678.53;3724974;37;20344;-63
2022/02/15 04:40:10;;;;;;;;;38.00;36.75;;;;;-2.70;100.00;101675.03;3724529;38;20437;-61
2022/02/15 04:42:39;;;;;;;;;22.50;21.00;;;;;-2.72;100.00;101676.91;3724848;37;20596;-62
2022/02/15 04:45:08;;;;;;;;;21.50;19.75;;;;;-2.77;100.00;101673.59;3725136;38;20353;-63
2022/02/15 04:47:48;;;;;;;;;22.50;22.25;;;;;-2.72;100.00;101674.25;3724790;38;20370;-62
2022/02/15 04:50:19;;;;;;;;;22.00;22.00;;;;;-2.75;100.00;101680.53;3724800;38;20457;-63
2022/02/15 04:52:49;;;;;;;;;22.25;22.00;;;;;-2.75;100.00;101679.69;3724894;37;20522;-62
2022/02/15 04:55:20;;;;;;;;;21.50;21.50;;;;;-2.73;100.00;101673.38;3725013;37;20476;-62
2022/02/15 04:57:55;;;;;;;;;19.75;18.25;;;;;-2.72;100.00;101679.53;3724855;37;20480;-63
2022/02/15 05:00:23;;;;;;;;;27.25;22.25;;;;;-2.72;100.00;101674.25;3724846;38;20441;-62
2022/02/15 05:03:09;;;;;;;;;22.00;22.00;;;;;-2.78;100.00;101671.88;3725293;38;20407;-62
2022/02/15 05:05:36;;;;;;;;;24.00;23.50;;;;;-2.81;100.00;101690.56;3724603;38;20395;-62
2022/02/15 05:08:04;;;;;;;;;22.00;21.25;;;;;-2.81;100.00;101686.12;3725023;37;20307;-61
2022/02/15 05:10:32;;;;;;;;;26.00;21.00;;;;;-2.81;100.00;101683.47;3724916;37;20418;-62
2022/02/15 05:13:01;;;;;;;;;30.00;26.50;;;;;-2.81;100.00;101691.44;3724852;38;20492;-62
2022/02/15 05:15:44;;;;;;;;;28.00;27.25;;;;;-2.78;100.00;101690.44;3725009;38;20391;-62
2022/02/15 05:18:19;;;;;;;;;23.75;23.50;;;;;-2.82;100.00;101697.66;3724917;37;20406;-63
2022/02/15 05:20:54;;;;;;;;;29.75;28.50;;;;;-2.87;100.00;101691.69;3724956;37;20396;-62
2022/02/15 05:23:23;;;;;;;;;28.75;28.75;;;;;-2.87;100.00;101699.66;3724930;37;20535;-62
2022/02/15 05:25:50;;;;;;;;;33.75;31.25;;;;;-2.86;100.00;101703.16;3724980;38;20406;-63
2022/02/15 05:28:36;;;;;;;;;37.50;34.00;;;;;-2.82;100.00;101702.09;3724897;37;20389;-64
2022/02/15 05:31:09;;;;;;;;;32.50;30.25;;;;;-2.74;100.00;101699.94;3724715;37;20430;-62
2022/02/15 05:33:40;;;;;;;;;42.00;38.50;;;;;-2.75;100.00;101699.09;3725447;37;20420;-62
2022/02/15 05:36:10;;;;;;;;;39.00;34.00;;;;;-2.72;100.00;101706.91;3724907;38;20400;-63
2022/02/15 05:38:41;;;;;;;;;36.25;33.50;;;;;-2.72;100.00;101701.59;3724906;37;20443;-63
2022/02/15 05:41:09;;;;;;;;;22.75;22.75;;;;;-2.77;100.00;101693.00;3724785;38;20413;-63
2022/02/15 05:43:39;;;;;;;;;28.25;26.00;;;;;-2.66;100.00;101711.06;3724982;38;21332;-62
2022/02/15 05:46:13;;;;;;;;;26.25;24.75;;;;;-2.67;100.00;101715.50;3726462;37;21322;-62
2022/02/15 05:48:45;;;;;;;;;34.00;30.25;;;;;-2.63;100.00;101705.63;3725374;37;20354;-61
2022/02/15 05:51:49;;;;;;;;;37.25;36.00;;;;;-2.56;100.00;101709.66;3725009;38;21358;-63
2022/02/15 05:54:27;;;;;;;;;39.25;37.75;;;;;-2.49;100.00;101716.41;3724887;37;21344;-64
2022/02/15 05:56:55;;;;;;;;;30.00;27.75;;;;;-2.40;100.00;101709.81;3724995;37;21620;-64
2022/02/15 05:59:51;;;;;;;;;32.75;29.75;;;;;-2.36;100.00;101712.25;3725014;37;21339;-64
2022/02/15 06:02:48;;;;;;;;;25.75;24.50;;;;;-2.29;100.00;101717.25;3725007;37;21423;-64
2022/02/15 06:05:34;;;;;;;;;32.25;28.25;;;;;-2.23;100.00;101715.19;3725009;38;21319;-63
2022/02/15 06:08:03;;;;;;;;;33.00;29.75;;;;;-2.21;100.00;101718.63;3725230;37;21357;-62
2022/02/15 06:10:35;;;;;;;;;30.50;29.25;;;;;-2.20;100.00;101714.19;3724544;37;21367;-62
2022/02/15 06:13:23;;;;;;;;;30.75;27.00;;;;;-2.07;100.00;101721.44;3725666;38;21265;-64
2022/02/15 06:15:56;;;;;;;;;28.25;25.00;;;;;-1.98;100.00;101725.44;3724741;37;21422;-63
2022/02/15 06:18:36;;;;;;;;;35.50;31.25;;;;;-1.90;100.00;101719.75;3724742;38;21372;-63
2022/02/15 06:21:06;;;;;;;;;34.00;32.00;;;;;-1.83;100.00;101721.19;3724368;38;21445;-64
2022/02/15 06:23:35;;;;;;;;;30.50;29.50;;;;;-1.77;100.00;101718.22;3724880;38;21454;-64
2022/02/15 06:26:09;;;;;;;;;29.75;29.50;;;;;-1.68;100.00;101718.63;3724950;38;21532;-65
2022/02/15 06:29:06;;;;;;;;;39.75;36.50;;;;;-1.57;100.00;101719.88;3725362;37;21671;-63
2022/02/15 06:31:39;;;;;;;;;42.00;37.00;;;;;-1.58;100.00;101728.78;3725131;38;21664;-65
2022/02/15 06:34:06;;;;;;;;;35.00;34.25;;;;;-1.49;100.00;101717.66;3725090;37;21452;-65
2022/02/15 06:36:37;;;;;;;;;37.75;33.25;;;;;-1.46;100.00;101714.84;3725359;38;21341;-63
2022/02/15 06:39:09;;;;;;;;;42.00;35.00;;;;;-1.39;100.00;101717.13;3723870;38;21424;-62
2022/02/15 06:41:40;;;;;;;;;42.00;38.00;;;;;-1.34;100.00;101708.91;3723906;37;21334;-63
2022/02/15 06:44:13;;;;;;;;;41.00;35.75;;;;;-1.23;100.00;101709.22;3724372;37;21589;-61
2022/02/15 06:46:47;;;;;;;;;35.00;32.75;;;;;-1.17;100.00;101706.25;3724402;38;21643;-63
2022/02/15 06:49:29;;;;;;;;;34.25;32.00;;;;;-1.11;100.00;101702.41;3724445;38;21625;-63
2022/02/15 06:52:16;;;;;;;;;38.25;35.25;;;;;-1.08;100.00;101691.63;3724597;37;21603;-63
2022/02/15 06:54:49;;;;;;;;;41.25;36.75;;;;;-1.00;100.00;101694.72;3724751;37;21361;-65
2022/02/15 06:57:20;;;;;;;;;41.50;35.75;;;;;-0.95;100.00;101700.63;3724840;37;21324;-64
2022/02/15 06:59:49;;;;;;;;;39.75;35.50;;;;;-0.88;100.00;101693.19;3725713;38;21318;-60
2022/02/15 07:02:18;;;;;;;;;46.25;40.25;;;;;-0.77;100.00;101690.81;3724719;37;21302;-64
2022/02/15 07:04:47;;;;;;;;;52.75;42.25;;;;;-0.77;100.00;101690.81;3718878;37;21525;-64
2022/02/15 07:07:15;;;;;;;;;53.25;43.00;;;;;-0.73;100.00;101687.06;3725129;37;21372;-66
2022/02/15 07:09:48;;;;;;;;;46.25;40.50;;;;;-0.64;100.00;101675.94;3725936;38;21318;-64
2022/02/15 07:12:23;;;;;;;;;51.75;42.25;;;;;-0.51;100.00;101684.91;3724841;37;21552;-64
2022/02/15 07:14:56;;;;;;;;;53.25;42.25;;;;;-0.46;100.00;101682.84;3724928;37;21435;-66
2022/02/15 07:17:38;;;;;;;;;48.25;37.50;;;;;-0.46;100.00;101658.94;3725023;38;21410;-64
2022/02/15 07:20:13;;;;;;;;;50.25;42.25;;;;;-0.15;100.00;101681.13;3725052;38;21433;-64
2022/02/15 07:22:58;;;;;;;;;47.00;37.75;;;;;-0.08;100.00;101680.72;3724671;37;21245;-62
2022/02/15 07:25:55;;;;;;;;;47.00;39.50;;;;;0.00;100.00;101673.09;3725091;38;21496;-62
2022/02/15 07:28:39;;;;;;;;;44.50;36.25;;;;;0.16;100.00;101672.22;3724683;37;21489;-64
2022/02/15 07:31:07;;;;;;;;;37.75;34.25;;;;;0.28;100.00;101672.38;3724968;38;21318;-62
2022/02/15 07:33:34;;;;;;;;;35.50;32.75;;;;;0.36;100.00;101673.72;3724943;37;21280;-64
2022/02/15 07:36:01;;;;;;;;;42.75;37.00;;;;;0.53;100.00;101669.06;3725387;37;21166;-64
2022/02/15 07:38:29;;;;;;;;;45.50;36.00;;;;;0.64;100.00;101666.63;3724907;37;21290;-63
2022/02/15 07:40:58;;;;;;;;;32.75;29.50;;;;;0.68;100.00;101675.28;3724929;38;21295;-63
2022/02/15 07:43:25;;;;;;;;;50.75;41.50;;;;;0.88;100.00;101674.94;3725005;37;21166;-59
2022/02/15 07:45:58;;;;;;;;;53.25;42.50;;;;;1.01;100.00;101667.06;3725007;37;21253;-65
2022/02/15 07:48:25;;;;;;;;;43.25;38.50;;;;;1.22;100.00;101681.69;3724902;37;21409;-61
2022/02/15 07:50:53;;;;;;;;;42.50;34.75;;;;;1.31;100.00;101675.78;3724945;38;21363;-62
2022/02/15 07:53:21;;;;;;;;;62.25;50.50;;;;;1.46;100.00;101668.63;3725051;37;21247;-65
2022/02/15 07:55:48;;;;;;;;;30.50;29.75;;;;;1.45;100.00;101671.38;3724926;38;21261;-62
2022/02/15 07:58:16;;;;;;;;;38.50;32.50;;;;;1.53;100.00;101672.59;3725125;38;21184;-63
2022/02/15 08:00:43;;;;;;;;;35.25;32.50;;;;;1.56;100.00;101667.03;3724979;37;21299;-66
2022/02/15 08:03:10;;;;;;;;;37.00;32.50;;;;;1.60;100.00;101660.56;3724867;37;21161;-66
2022/02/15 08:05:41;;;;;;;;;30.50;29.00;;;;;1.73;100.00;101673.97;3724952;38;21168;-63
2022/02/15 08:08:13;;;;;;;;;39.00;34.25;;;;;1.97;100.00;101664.37;3725937;38;21320;-64
2022/02/15 08:10:41;;;;;;;;;38.75;34.00;;;;;2.12;100.00;101661.59;3724968;37;21131;-64
2022/02/15 08:13:09;;;;;;;;;37.00;35.25;;;;;2.19;100.00;101662.91;3725119;37;21426;-64
2022/02/15 08:15:41;;;;;;;;;35.50;31.00;;;;;2.26;100.00;101657.06;3725063;37;21200;-63
2022/02/15 08:18:08;;;;;;;;;30.75;29.75;;;;;2.32;100.00;101651.31;3725158;37;21161;-64
2022/02/15 08:20:36;;;;;;;;;40.00;37.00;;;;;2.43;100.00;101652.41;3725021;38;21069;-63
2022/02/15 08:23:03;;;;;;;;;37.25;32.50;;;;;2.63;100.00;101654.53;3724841;38;21360;-63
2022/02/15 08:25:31;;;;;;;;;39.50;34.75;;;;;2.73;100.00;101657.44;3725015;38;21122;-65
2022/02/15 08:27:58;;;;;;;;;41.00;33.50;;;;;2.76;100.00;101650.06;3725230;38;21087;-65
2022/02/15 08:30:27;;;;;;;;;37.25;34.25;;;;;2.87;100.00;101651.97;3725215;38;21025;-64
2022/02/15 08:32:57;;;;;;;;;40.25;34.00;;;;;2.88;100.00;101656.38;3726047;37;21044;-64
2022/02/15 08:35:26;;;;;;;;;45.00;38.00;;;;;2.75;100.00;101621.59;3725313;38;21421;-64
2022/02/15 08:37:56;;;;;;;;;45.00;37.75;;;;;2.78;100.00;101618.72;3725226;37;21296;-61
2022/02/15 08:40:24;;;;;;;;;37.25;34.25;;;;;2.97;100.00;101653.06;3725148;37;21177;-63
2022/02/15 08:42:51;;;;;;;;;35.50;33.50;;;;;3.08;100.00;101653.16;3725297;37;21233;-63
2022/02/15 08:45:20;;;;;;;;;39.50;33.75;;;;;3.03;100.00;101644.59;3726367;37;21142;-63
2022/02/15 08:47:51;;;;;;;;;41.75;34.75;;;;;3.13;100.00;101647.44;3725527;37;21114;-65
2022/02/15 08:50:21;;;;;;;;;33.50;31.00;;;;;3.26;100.00;101651.81;3726261;37;21026;-66
2022/02/15 08:52:49;;;;;;;;;36.00;31.75;;;;;3.45;100.00;101651.34;3737151;37;21037;-64
2022/02/15 08:55:18;;;;;;;;;31.50;29.50;;;;;3.49;100.00;101643.97;3738218;38;20993;-65
2022/02/15 08:57:47;;;;;;;;;33.75;30.50;;;;;3.52;100.00;101643.75;3738265;38;21026;-66
2022/02/15 09:00:20;;;;;;;;;30.25;28.25;;;;;3.50;100.00;101643.00;3738645;38;21033;-65
2022/02/15 09:02:53;;;;;;;;;28.00;23.00;;;;;3.66;100.00;101641.75;3737093;38;21016;-64
2022/02/15 09:05:23;;;;;;;;;28.75;28.50;;;;;3.79;100.00;101643.50;3730071;37;21105;-63
2022/02/15 09:07:51;;;;;;;;;31.25;29.75;;;;;3.82;100.00;101641.47;3725224;38;21111;-63
2022/02/15 09:10:19;;;;;;;;;30.50;28.00;;;;;3.63;100.00;101625.94;3724730;38;21006;-63
2022/02/15 09:12:47;;;;;;;;;33.25;31.00;;;;;3.57;100.00;101634.41;3725263;37;21088;-63
2022/02/15 09:15:15;;;;;;;;;34.50;31.25;;;;;3.53;100.00;101642.78;3725310;38;21080;-64
2022/02/15 09:17:43;;;;;;;;;33.25;29.50;;;;;3.69;100.00;101646.00;3724746;38;20969;-64
2022/02/15 09:20:12;;;;;;;;;34.00;31.50;;;;;3.92;100.00;101649.69;3724807;38;20987;-65
2022/02/15 09:22:41;;;;;;;;;35.50;32.75;;;;;4.05;100.00;101652.31;3724679;38;21095;-63
2022/02/15 09:25:10;;;;;;;;;33.75;33.00;;;;;4.17;100.00;101646.00;3725006;37;21073;-64
2022/02/15 09:27:37;;;;;;;;;35.50;33.50;;;;;4.11;100.00;101650.03;3724742;38;21219;-63
2022/02/15 09:30:06;;;;;;;;;41.50;34.75;;;;;4.17;100.00;101652.19;3725121;38;21213;-66
2022/02/15 09:32:36;;;;;;;;;39.50;35.00;;;;;4.21;100.00;101645.66;3724698;37;21229;-63
2022/02/15 09:35:05;;;;;;;;;36.00;33.00;;;;;4.33;100.00;101650.06;3724989;37;21264;-62
2022/02/15 09:37:34;;;;;;;;;40.25;34.50;;;;;4.33;100.00;101646.53;3724971;37;20986;-62
2022/02/15 09:40:04;;;;;;;;;36.00;33.50;;;;;4.43;100.00;101642.19;3724662;38;21071;-64
2022/02/15 09:42:32;;;;;;;;;39.25;34.50;;;;;4.42;100.00;101639.63;3724727;38;20952;-64
2022/02/15 09:44:59;;;;;;;;;48.00;36.00;;;;;4.43;100.00;101639.50;3724891;37;21033;-64
2022/02/15 09:47:27;;;;;;;;;37.50;33.00;;;;;4.55;100.00;101635.03;3725192;38;21294;-64
2022/02/15 09:49:55;;;;;;;;;33.00;30.50;;;;;4.33;100.00;101627.78;3725024;38;21016;-63
2022/02/15 09:52:24;;;;;;;;;39.75;36.00;;;;;4.43;100.00;101633.31;3725002;38;20997;-63
2022/02/15 09:54:55;;;;;;;;;44.75;35.25;;;;;4.14;100.00;101633.72;3725052;38;21041;-63
2022/02/15 09:57:24;;;;;;;;;37.25;33.50;;;;;4.18;100.00;101632.47;3724959;37;21049;-65
2022/02/15 09:59:52;;;;;;;;;39.75;34.75;;;;;4.26;100.00;101622.03;3724901;38;20933;-60
2022/02/15 10:02:25;;;;;;;;;37.50;34.25;;;;;4.32;100.00;101621.56;3724533;37;20929;-63
2022/02/15 10:04:57;;;;;;;;;40.50;34.25;;;;;4.27;100.00;101623.75;3725066;37;21151;-62
2022/02/15 10:07:25;;;;;;;;;48.50;39.75;;;;;4.36;100.00;101618.66;3725130;37;20914;-63
2022/02/15 10:09:55;;;;;;;;;46.50;37.25;;;;;4.64;100.00;101620.94;3725096;37;21007;-61
2022/02/15 10:12:24;;;;;;;;;41.00;35.75;;;;;4.56;100.00;101612.63;3724523;38;21101;-62
2022/02/15 10:14:57;;;;;;;;;40.75;35.00;;;;;4.47;100.00;101603.47;3725003;38;21201;-64
2022/02/15 10:17:26;;;;;;;;;39.50;36.00;;;;;4.63;100.00;101597.75;3724944;37;20931;-65
2022/02/15 10:19:58;;;;;;;;;43.50;36.25;;;;;4.50;100.00;101595.19;3725342;37;21170;-61
2022/02/15 10:22:27;;;;;;;;;46.00;38.75;;;;;4.39;100.00;101591.62;3724950;38;21010;-64
2022/02/15 10:24:58;;;;;;;;;45.25;38.50;;;;;4.56;100.00;101584.00;3724544;37;20982;-65
2022/02/15 10:27:40;;;;;;;;;39.75;35.25;;;;;4.54;100.00;101569.00;3725070;38;20938;-62
2022/02/15 10:30:09;;;;;;;;;43.00;37.25;;;;;4.77;100.00;101572.53;3724497;37;21089;-63
2022/02/15 10:32:42;;;;;;;;;45.75;38.50;;;;;4.61;100.00;101546.09;3724587;38;20873;-62
2022/02/15 10:35:10;;;;;;;;;50.25;41.25;;;;;4.92;100.00;101566.81;3724731;37;21004;-62
2022/02/15 10:37:38;;;;;;;;;49.00;40.25;;;;;5.04;100.00;101556.06;3724864;37;20981;-64
2022/02/15 10:40:07;;;;;;;;;49.00;40.50;;;;;5.10;100.00;101559.09;3724461;38;20999;-65
2022/02/15 10:42:38;;;;;;;;;46.75;39.25;;;;;5.19;100.00;101561.06;3724679;37;21026;-63
2022/02/15 10:45:10;;;;;;;;;45.00;37.50;;;;;5.03;100.00;101557.91;3725004;37;21192;-63
2022/02/15 10:47:45;;;;;;;;;43.25;37.75;;;;;5.17;100.00;101559.47;3724773;37;20936;-62
2022/02/15 10:50:15;;;;;;;;;47.00;36.50;;;;;5.36;100.00;101550.75;3724390;37;20949;-65
2022/02/15 10:52:43;;;;;;;;;43.75;37.75;;;;;5.43;100.00;101547.44;3724754;37;20948;-62
2022/02/15 10:55:12;;;;;;;;;41.00;36.25;;;;;5.27;100.00;101547.84;3724574;37;20859;-63
2022/02/15 10:57:41;;;;;;;;;42.00;36.00;;;;;5.15;100.00;101550.69;3723861;38;20855;-62
2022/02/15 11:00:11;;;;;;;;;41.00;36.50;;;;;5.10;100.00;101542.16;3724511;37;20957;-63
2022/02/15 11:02:41;;;;;;;;;42.50;36.25;;;;;5.18;100.00;101534.34;3724540;37;21069;-64
2022/02/15 11:05:11;;;;;;;;;42.75;36.50;;;;;5.34;100.00;101534.75;3726138;37;20853;-63
2022/02/15 11:07:39;;;;;;;;;48.00;39.25;;;;;5.59;100.00;101537.12;3725122;38;21124;-62
2022/02/15 11:10:31;;;;;;;;;45.00;36.75;;;;;5.74;100.00;101532.28;3725080;38;21087;-63
2022/02/15 11:13:03;;;;;;;;;42.00;37.25;;;;;5.65;100.00;101528.56;3725012;38;20912;-64
2022/02/15 11:15:33;;;;;;;;;43.00;36.00;;;;;5.81;100.00;101521.87;3725101;37;20948;-64
2022/02/15 11:18:04;;;;;;;;;52.25;42.50;;;;;5.76;100.00;101524.09;3726025;38;20904;-63
2022/02/15 11:20:58;;;;;;;;;48.25;39.75;;;;;5.64;100.00;101524.19;3725948;37;21170;-63
2022/02/15 11:23:29;;;;;;;;;51.25;39.00;;;;;5.53;100.00;101513.47;3725514;38;21004;-64
2022/02/15 11:26:43;;;;;;;;;46.75;38.00;;;;;5.60;100.00;101508.44;3724614;38;21115;-60